sensor_id;sensor_type;location;lat;lon;timestamp;pressure;altitude;pressure_sealevel;temperature;humidity
49567;BME280;35472;50.514;30.448;2022-07-23T00:01:28;100008.44;;;21.49;65.24
49567;BME280;35472;50.514;30.448;2022-07-23T00:03:54;100009.91;;;21.34;66.16
49567;BME280;35472;50.514;30.448;2022-07-23T00:06:21;100010.41;;;21.15;66.36
49567;BME280;35472;50.514;30.448;2022-07-23T00:08:47;100001.88;;;21.20;66.40
49567;BME280;35472;50.514;30.448;2022-07-23T00:11:13;100012.56;;;21.30;66.12
49567;BME280;35472;50.514;30.448;2022-07-23T00:13:38;100005.06;;;21.10;67.22
49567;BME280;35472;50.514;30.448;2022-07-23T00:16:04;100007.78;;;21.19;66.98
49567;BME280;35472;50.514;30.448;2022-07-23T00:18:29;100005.91;;;21.23;66.73
49567;BME280;35472;50.514;30.448;2022-07-23T00:20:55;100010.41;;;21.48;65.91
49567;BME280;35472;50.514;30.448;2022-07-23T00:23:20;100008.28;;;21.45;66.60
49567;BME280;35472;50.514;30.448;2022-07-23T00:25:46;100008.97;;;20.97;67.96
49567;BME280;35472;50.514;30.448;2022-07-23T00:28:11;100018.41;;;20.83;68.91
49567;BME280;35472;50.514;30.448;2022-07-23T00:30:37;100017.00;;;21.23;67.73
49567;BME280;35472;50.514;30.448;2022-07-23T00:33:05;100010.13;;;21.41;66.98
49567;BME280;35472;50.514;30.448;2022-07-23T00:35:32;100013.97;;;21.36;66.73
49567;BME280;35472;50.514;30.448;2022-07-23T00:38:00;100014.00;;;21.15;67.41
49567;BME280;35472;50.514;30.448;2022-07-23T00:40:26;100009.47;;;21.11;67.63
49567;BME280;35472;50.514;30.448;2022-07-23T00:42:52;100020.63;;;21.35;66.82
49567;BME280;35472;50.514;30.448;2022-07-23T00:45:17;100021.59;;;21.39;66.63
49567;BME280;35472;50.514;30.448;2022-07-23T00:47:43;100022.72;;;20.93;68.74
49567;BME280;35472;50.514;30.448;2022-07-23T00:50:09;100024.28;;;20.82;69.78
49567;BME280;35472;50.514;30.448;2022-07-23T00:52:36;100027.81;;;20.49;71.23
49567;BME280;35472;50.514;30.448;2022-07-23T00:55:03;100022.16;;;20.46;71.91
49567;BME280;35472;50.514;30.448;2022-07-23T00:57:29;100027.13;;;20.31;72.07
49567;BME280;35472;50.514;30.448;2022-07-23T00:59:55;100023.41;;;20.27;72.21
49567;BME280;35472;50.514;30.448;2022-07-23T01:02:20;100029.22;;;20.34;72.19
49567;BME280;35472;50.514;30.448;2022-07-23T01:04:46;100029.41;;;20.29;72.37
49567;BME280;35472;50.514;30.448;2022-07-23T01:07:11;100028.34;;;20.22;72.58
49567;BME280;35472;50.514;30.448;2022-07-23T01:09:37;100037.53;;;20.34;71.90
49567;BME280;35472;50.514;30.448;2022-07-23T01:12:03;100032.72;;;20.23;72.42
49567;BME280;35472;50.514;30.448;2022-07-23T01:14:29;100036.75;;;20.55;70.93
49567;BME280;35472;50.514;30.448;2022-07-23T01:16:55;100042.84;;;20.19;72.90
49567;BME280;35472;50.514;30.448;2022-07-23T01:19:20;100033.06;;;20.42;72.53
49567;BME280;35472;50.514;30.448;2022-07-23T01:21:48;100041.75;;;20.61;71.80
49567;BME280;35472;50.514;30.448;2022-07-23T01:24:14;100050.69;;;20.38;73.75
49567;BME280;35472;50.514;30.448;2022-07-23T01:26:48;100042.53;;;20.62;72.75
49567;BME280;35472;50.514;30.448;2022-07-23T01:29:14;100044.06;;;20.59;73.08
49567;BME280;35472;50.514;30.448;2022-07-23T01:31:42;100040.41;;;20.38;74.19
49567;BME280;35472;50.514;30.448;2022-07-23T01:34:08;100037.72;;;20.29;74.85
49567;BME280;35472;50.514;30.448;2022-07-23T01:36:35;100038.94;;;20.41;74.48
49567;BME280;35472;50.514;30.448;2022-07-23T01:39:02;100049.06;;;19.86;77.26
49567;BME280;35472;50.514;30.448;2022-07-23T01:41:28;100043.25;;;20.08;76.78
49567;BME280;35472;50.514;30.448;2022-07-23T01:43:53;100042.25;;;20.34;76.10
49567;BME280;35472;50.514;30.448;2022-07-23T01:46:19;100049.34;;;20.44;75.86
49567;BME280;35472;50.514;30.448;2022-07-23T01:48:47;100047.75;;;20.13;78.46
49567;BME280;35472;50.514;30.448;2022-07-23T01:51:39;100046.28;;;20.16;78.62
49567;BME280;35472;50.514;30.448;2022-07-23T01:54:26;100048.72;;;20.47;77.41
49567;BME280;35472;50.514;30.448;2022-07-23T01:56:52;100047.28;;;20.61;76.26
49567;BME280;35472;50.514;30.448;2022-07-23T01:59:17;100057.47;;;20.28;78.59
49567;BME280;35472;50.514;30.448;2022-07-23T02:01:45;100047.31;;;20.32;78.81
49567;BME280;35472;50.514;30.448;2022-07-23T02:04:11;100046.91;;;20.51;77.70
49567;BME280;35472;50.514;30.448;2022-07-23T02:06:37;100046.56;;;20.52;77.58
49567;BME280;35472;50.514;30.448;2022-07-23T02:09:03;100045.41;;;20.53;77.93
49567;BME280;35472;50.514;30.448;2022-07-23T02:11:28;100057.81;;;20.68;77.35
49567;BME280;35472;50.514;30.448;2022-07-23T02:13:53;100058.56;;;20.56;77.98
49567;BME280;35472;50.514;30.448;2022-07-23T02:16:20;100053.59;;;20.71;77.36
49567;BME280;35472;50.514;30.448;2022-07-23T02:18:46;100048.97;;;20.75;76.89
49567;BME280;35472;50.514;30.448;2022-07-23T02:21:12;100049.03;;;20.66;77.76
49567;BME280;35472;50.514;30.448;2022-07-23T02:23:38;100049.03;;;20.87;77.40
49567;BME280;35472;50.514;30.448;2022-07-23T02:26:03;100053.75;;;20.86;76.89
49567;BME280;35472;50.514;30.448;2022-07-23T02:28:29;100048.38;;;20.69;78.30
49567;BME280;35472;50.514;30.448;2022-07-23T02:30:55;100051.97;;;20.70;79.41
49567;BME280;35472;50.514;30.448;2022-07-23T02:33:21;100057.41;;;20.78;79.00
49567;BME280;35472;50.514;30.448;2022-07-23T02:35:46;100051.94;;;20.91;78.22
49567;BME280;35472;50.514;30.448;2022-07-23T02:38:12;100054.50;;;21.29;76.72
49567;BME280;35472;50.514;30.448;2022-07-23T02:40:38;100051.34;;;21.63;74.89
49567;BME280;35472;50.514;30.448;2022-07-23T02:43:04;100058.69;;;21.02;78.68
49567;BME280;35472;50.514;30.448;2022-07-23T02:45:29;100054.81;;;21.48;76.24
49567;BME280;35472;50.514;30.448;2022-07-23T02:47:55;100056.41;;;21.16;77.99
49567;BME280;35472;50.514;30.448;2022-07-23T02:50:20;100054.41;;;21.04;79.08
49567;BME280;35472;50.514;30.448;2022-07-23T02:52:46;100054.50;;;21.29;77.31
49567;BME280;35472;50.514;30.448;2022-07-23T02:55:12;100051.09;;;21.44;76.63
49567;BME280;35472;50.514;30.448;2022-07-23T02:57:37;100050.03;;;21.15;78.14
49567;BME280;35472;50.514;30.448;2022-07-23T03:00:04;100058.69;;;20.81;79.64
49567;BME280;35472;50.514;30.448;2022-07-23T03:02:31;100057.22;;;20.83;80.07
49567;BME280;35472;50.514;30.448;2022-07-23T03:04:56;100057.50;;;21.24;78.55
49567;BME280;35472;50.514;30.448;2022-07-23T03:07:22;100050.91;;;21.98;75.24
49567;BME280;35472;50.514;30.448;2022-07-23T03:09:48;100065.88;;;23.26;69.55
49567;BME280;35472;50.514;30.448;2022-07-23T03:12:13;100077.84;;;23.43;68.96
49567;BME280;35472;50.514;30.448;2022-07-23T03:14:39;100070.78;;;24.79;62.51
49567;BME280;35472;50.514;30.448;2022-07-23T03:17:05;100075.38;;;25.06;61.62
49567;BME280;35472;50.514;30.448;2022-07-23T03:19:31;100075.53;;;25.36;60.36
49567;BME280;35472;50.514;30.448;2022-07-23T03:21:56;100083.81;;;25.98;58.03
49567;BME280;35472;50.514;30.448;2022-07-23T03:24:22;100083.63;;;26.10;56.70
49567;BME280;35472;50.514;30.448;2022-07-23T03:26:49;100077.41;;;26.47;55.81
49567;BME280;35472;50.514;30.448;2022-07-23T03:29:15;100080.56;;;27.39;52.44
49567;BME280;35472;50.514;30.448;2022-07-23T03:31:41;100090.81;;;27.24;52.70
49567;BME280;35472;50.514;30.448;2022-07-23T03:34:07;100088.03;;;27.28;53.29
49567;BME280;35472;50.514;30.448;2022-07-23T03:36:32;100084.94;;;27.74;52.27
49567;BME280;35472;50.514;30.448;2022-07-23T03:38:58;100087.59;;;26.92;53.04
49567;BME280;35472;50.514;30.448;2022-07-23T03:41:24;100085.03;;;29.16;48.27
49567;BME280;35472;50.514;30.448;2022-07-23T03:43:49;100088.59;;;28.99;48.30
49567;BME280;35472;50.514;30.448;2022-07-23T03:46:14;100083.44;;;28.35;48.75
49567;BME280;35472;50.514;30.448;2022-07-23T03:48:40;100081.50;;;26.83;53.30
49567;BME280;35472;50.514;30.448;2022-07-23T03:51:05;100088.28;;;29.29;46.87
49567;BME280;35472;50.514;30.448;2022-07-23T03:53:31;100081.16;;;30.35;44.93
49567;BME280;35472;50.514;30.448;2022-07-23T03:55:56;100088.72;;;29.45;46.37
49567;BME280;35472;50.514;30.448;2022-07-23T03:58:22;100092.00;;;30.33;44.97
49567;BME280;35472;50.514;30.448;2022-07-23T04:00:48;100086.75;;;30.49;43.85
49567;BME280;35472;50.514;30.448;2022-07-23T04:03:14;100087.50;;;30.67;43.34
49567;BME280;35472;50.514;30.448;2022-07-23T04:05:41;100090.41;;;30.00;45.07
49567;BME280;35472;50.514;30.448;2022-07-23T04:08:10;100092.00;;;30.01;44.78
49567;BME280;35472;50.514;30.448;2022-07-23T04:10:38;100082.09;;;31.19;42.30
49567;BME280;35472;50.514;30.448;2022-07-23T04:13:05;100091.25;;;30.22;43.77
49567;BME280;35472;50.514;30.448;2022-07-23T04:15:31;100088.03;;;31.43;41.58
49567;BME280;35472;50.514;30.448;2022-07-23T04:18:00;100087.13;;;31.53;41.29
49567;BME280;35472;50.514;30.448;2022-07-23T04:20:38;100086.03;;;31.99;40.59
49567;BME280;35472;50.514;30.448;2022-07-23T04:23:03;100087.38;;;32.28;40.08
49567;BME280;35472;50.514;30.448;2022-07-23T04:25:29;100093.94;;;32.56;39.58
49567;BME280;35472;50.514;30.448;2022-07-23T04:27:54;100077.59;;;33.08;38.89
49567;BME280;35472;50.514;30.448;2022-07-23T04:30:20;100084.84;;;32.75;38.84
49567;BME280;35472;50.514;30.448;2022-07-23T04:32:45;100074.69;;;30.59;42.62
49567;BME280;35472;50.514;30.448;2022-07-23T04:35:25;100078.31;;;31.47;41.42
49567;BME280;35472;50.514;30.448;2022-07-23T04:37:54;100081.25;;;31.92;40.72
49567;BME280;35472;50.514;30.448;2022-07-23T04:40:19;100075.44;;;33.20;38.14
49567;BME280;35472;50.514;30.448;2022-07-23T04:42:45;100084.88;;;34.61;36.26
49567;BME280;35472;50.514;30.448;2022-07-23T04:45:11;100082.97;;;32.99;37.53
49567;BME280;35472;50.514;30.448;2022-07-23T04:47:39;100088.66;;;32.62;38.42
49567;BME280;35472;50.514;30.448;2022-07-23T04:50:06;100088.66;;;34.94;35.00
49567;BME280;35472;50.514;30.448;2022-07-23T04:52:31;100091.03;;;34.56;35.58
49567;BME280;35472;50.514;30.448;2022-07-23T04:54:57;100095.25;;;33.47;37.20
49567;BME280;35472;50.514;30.448;2022-07-23T04:57:32;100085.41;;;33.58;36.80
49567;BME280;35472;50.514;30.448;2022-07-23T04:59:57;100085.34;;;33.85;36.36
49567;BME280;35472;50.514;30.448;2022-07-23T05:02:22;100087.78;;;33.60;36.17
49567;BME280;35472;50.514;30.448;2022-07-23T05:04:50;100091.97;;;34.26;35.63
49567;BME280;35472;50.514;30.448;2022-07-23T05:07:19;100092.81;;;34.46;34.52
49567;BME280;35472;50.514;30.448;2022-07-23T05:09:45;100092.63;;;34.57;34.94
49567;BME280;35472;50.514;30.448;2022-07-23T05:12:11;100092.97;;;35.02;34.33
49567;BME280;35472;50.514;30.448;2022-07-23T05:14:37;100089.56;;;35.80;33.01
49567;BME280;35472;50.514;30.448;2022-07-23T05:17:04;100094.47;;;34.67;34.40
49567;BME280;35472;50.514;30.448;2022-07-23T05:19:30;100093.84;;;35.71;32.51
49567;BME280;35472;50.514;30.448;2022-07-23T05:21:55;100100.47;;;35.29;33.69
49567;BME280;35472;50.514;30.448;2022-07-23T05:24:21;100105.00;;;35.62;32.87
49567;BME280;35472;50.514;30.448;2022-07-23T05:26:47;100109.69;;;34.97;32.88
49567;BME280;35472;50.514;30.448;2022-07-23T05:29:12;100106.72;;;34.60;32.90
49567;BME280;35472;50.514;30.448;2022-07-23T05:31:38;100106.38;;;35.18;32.08
49567;BME280;35472;50.514;30.448;2022-07-23T05:34:04;100097.28;;;34.67;32.36
49567;BME280;35472;50.514;30.448;2022-07-23T05:36:31;100106.06;;;35.32;32.23
49567;BME280;35472;50.514;30.448;2022-07-23T05:38:58;100105.13;;;36.24;30.78
49567;BME280;35472;50.514;30.448;2022-07-23T05:41:32;100111.59;;;35.39;32.04
49567;BME280;35472;50.514;30.448;2022-07-23T05:43:58;100111.28;;;36.51;30.97
49567;BME280;35472;50.514;30.448;2022-07-23T05:46:24;100108.53;;;35.50;31.47
49567;BME280;35472;50.514;30.448;2022-07-23T05:48:55;100106.84;;;34.10;33.30
49567;BME280;35472;50.514;30.448;2022-07-23T05:51:40;100101.09;;;35.36;32.75
49567;BME280;35472;50.514;30.448;2022-07-23T05:54:07;100106.91;;;36.02;30.92
49567;BME280;35472;50.514;30.448;2022-07-23T05:56:36;100113.19;;;36.42;29.43
49567;BME280;35472;50.514;30.448;2022-07-23T05:59:02;100114.19;;;36.64;29.82
49567;BME280;35472;50.514;30.448;2022-07-23T06:01:28;100109.09;;;35.41;32.14
49567;BME280;35472;50.514;30.448;2022-07-23T06:04:04;100102.97;;;36.73;30.14
49567;BME280;35472;50.514;30.448;2022-07-23T06:06:34;100106.53;;;35.83;30.58
49567;BME280;35472;50.514;30.448;2022-07-23T06:09:01;100104.00;;;36.34;30.41
49567;BME280;35472;50.514;30.448;2022-07-23T06:11:28;100106.44;;;36.36;30.76
49567;BME280;35472;50.514;30.448;2022-07-23T06:13:55;100103.41;;;35.25;31.39
49567;BME280;35472;50.514;30.448;2022-07-23T06:16:25;100108.06;;;36.66;30.47
49567;BME280;35472;50.514;30.448;2022-07-23T06:18:51;100104.66;;;35.77;30.20
49567;BME280;35472;50.514;30.448;2022-07-23T06:21:16;100108.31;;;36.71;28.43
49567;BME280;35472;50.514;30.448;2022-07-23T06:23:44;100103.88;;;36.25;29.27
49567;BME280;35472;50.514;30.448;2022-07-23T06:26:10;100102.63;;;36.26;29.19
49567;BME280;35472;50.514;30.448;2022-07-23T06:28:35;100105.19;;;36.37;29.22
49567;BME280;35472;50.514;30.448;2022-07-23T06:31:00;100108.28;;;37.55;28.36
49567;BME280;35472;50.514;30.448;2022-07-23T06:33:28;100115.69;;;36.98;29.57
49567;BME280;35472;50.514;30.448;2022-07-23T06:35:58;100113.88;;;36.46;30.06
49567;BME280;35472;50.514;30.448;2022-07-23T06:38:23;100115.28;;;36.38;29.27
49567;BME280;35472;50.514;30.448;2022-07-23T06:40:55;100116.53;;;35.88;29.58
49567;BME280;35472;50.514;30.448;2022-07-23T06:43:22;100112.03;;;35.74;30.28
49567;BME280;35472;50.514;30.448;2022-07-23T06:45:52;100114.88;;;36.39;29.21
49567;BME280;35472;50.514;30.448;2022-07-23T06:48:18;100112.38;;;35.40;29.65
49567;BME280;35472;50.514;30.448;2022-07-23T06:50:43;100122.19;;;35.35;29.08
49567;BME280;35472;50.514;30.448;2022-07-23T06:53:09;100119.03;;;34.93;29.79
49567;BME280;35472;50.514;30.448;2022-07-23T06:55:34;100123.66;;;33.94;31.05
49567;BME280;35472;50.514;30.448;2022-07-23T06:58:04;100118.91;;;34.57;29.38
49567;BME280;35472;50.514;30.448;2022-07-23T07:00:30;100123.06;;;33.52;30.44
49567;BME280;35472;50.514;30.448;2022-07-23T07:03:00;100121.97;;;34.23;30.27
49567;BME280;35472;50.514;30.448;2022-07-23T07:05:26;100118.41;;;34.39;30.06
49567;BME280;35472;50.514;30.448;2022-07-23T07:07:54;100116.44;;;34.16;30.16
49567;BME280;35472;50.514;30.448;2022-07-23T07:10:20;100107.66;;;34.97;29.84
49567;BME280;35472;50.514;30.448;2022-07-23T07:12:48;100114.91;;;34.98;31.01
49567;BME280;35472;50.514;30.448;2022-07-23T07:15:14;100106.66;;;35.24;29.42
49567;BME280;35472;50.514;30.448;2022-07-23T07:17:39;100112.19;;;32.82;31.89
49567;BME280;35472;50.514;30.448;2022-07-23T07:20:05;100100.56;;;33.14;32.19
49567;BME280;35472;50.514;30.448;2022-07-23T07:22:30;100120.16;;;32.56;32.31
49567;BME280;35472;50.514;30.448;2022-07-23T07:24:56;100114.09;;;32.96;32.74
49567;BME280;35472;50.514;30.448;2022-07-23T07:27:21;100111.34;;;32.06;33.88
49567;BME280;35472;50.514;30.448;2022-07-23T07:29:48;100114.16;;;32.10;34.73
49567;BME280;35472;50.514;30.448;2022-07-23T07:32:16;100113.16;;;32.34;34.19
49567;BME280;35472;50.514;30.448;2022-07-23T07:34:41;100110.09;;;30.21;37.07
49567;BME280;35472;50.514;30.448;2022-07-23T07:37:07;100105.31;;;30.29;37.32
49567;BME280;35472;50.514;30.448;2022-07-23T07:39:32;100110.13;;;32.52;34.73
49567;BME280;35472;50.514;30.448;2022-07-23T07:42:00;100103.22;;;30.58;37.14
49567;BME280;35472;50.514;30.448;2022-07-23T07:44:26;100107.22;;;30.67;37.64
49567;BME280;35472;50.514;30.448;2022-07-23T07:46:51;100102.19;;;31.91;35.49
49567;BME280;35472;50.514;30.448;2022-07-23T07:49:18;100096.81;;;31.56;36.00
49567;BME280;35472;50.514;30.448;2022-07-23T07:51:45;100106.06;;;31.53;36.33
49567;BME280;35472;50.514;30.448;2022-07-23T07:54:10;100114.47;;;32.19;35.63
49567;BME280;35472;50.514;30.448;2022-07-23T07:56:37;100116.91;;;32.58;35.82
49567;BME280;35472;50.514;30.448;2022-07-23T07:59:05;100115.63;;;32.21;35.36
49567;BME280;35472;50.514;30.448;2022-07-23T08:01:31;100116.28;;;31.21;36.64
49567;BME280;35472;50.514;30.448;2022-07-23T08:03:56;100115.53;;;32.36;34.40
49567;BME280;35472;50.514;30.448;2022-07-23T08:06:21;100113.56;;;31.77;35.76
49567;BME280;35472;50.514;30.448;2022-07-23T08:08:49;100114.72;;;31.13;36.97
49567;BME280;35472;50.514;30.448;2022-07-23T08:11:15;100116.63;;;32.04;35.20
49567;BME280;35472;50.514;30.448;2022-07-23T08:13:40;100116.06;;;32.65;33.95
49567;BME280;35472;50.514;30.448;2022-07-23T08:16:06;100126.16;;;32.17;35.17
49567;BME280;35472;50.514;30.448;2022-07-23T08:18:33;100118.38;;;32.73;34.53
49567;BME280;35472;50.514;30.448;2022-07-23T08:20:58;100117.88;;;31.30;35.89
49567;BME280;35472;50.514;30.448;2022-07-23T08:23:24;100114.91;;;31.58;35.70
49567;BME280;35472;50.514;30.448;2022-07-23T08:25:50;100114.59;;;31.45;36.47
49567;BME280;35472;50.514;30.448;2022-07-23T08:28:15;100110.06;;;32.59;35.17
49567;BME280;35472;50.514;30.448;2022-07-23T08:30:44;100107.88;;;31.88;35.60
49567;BME280;35472;50.514;30.448;2022-07-23T08:33:12;100105.75;;;31.40;36.03
49567;BME280;35472;50.514;30.448;2022-07-23T08:35:41;100093.09;;;31.66;35.68
49567;BME280;35472;50.514;30.448;2022-07-23T08:38:09;100112.50;;;30.08;37.55
49567;BME280;35472;50.514;30.448;2022-07-23T08:40:37;100094.84;;;30.26;38.10
49567;BME280;35472;50.514;30.448;2022-07-23T08:43:07;100110.88;;;29.72;38.25
49567;BME280;35472;50.514;30.448;2022-07-23T08:45:36;100105.25;;;30.43;36.18
49567;BME280;35472;50.514;30.448;2022-07-23T08:48:03;100108.50;;;30.34;36.71
49567;BME280;35472;50.514;30.448;2022-07-23T08:50:30;100104.03;;;31.57;35.33
49567;BME280;35472;50.514;30.448;2022-07-23T08:52:58;100103.50;;;31.03;36.33
49567;BME280;35472;50.514;30.448;2022-07-23T08:55:24;100104.88;;;30.05;38.13
49567;BME280;35472;50.514;30.448;2022-07-23T08:57:52;100111.16;;;29.27;38.53
49567;BME280;35472;50.514;30.448;2022-07-23T09:00:18;100100.44;;;30.01;38.02
49567;BME280;35472;50.514;30.448;2022-07-23T09:02:45;100096.84;;;30.04;37.09
49567;BME280;35472;50.514;30.448;2022-07-23T09:05:12;100100.47;;;30.22;37.26
49567;BME280;35472;50.514;30.448;2022-07-23T09:08:03;100104.78;;;29.41;38.01
49567;BME280;35472;50.514;30.448;2022-07-23T09:10:23;100093.22;;;29.78;37.75
49567;BME280;35472;50.514;30.448;2022-07-23T09:12:49;100094.81;;;29.97;37.51
49567;BME280;35472;50.514;30.448;2022-07-23T09:15:16;100091.19;;;30.47;37.21
49567;BME280;35472;50.514;30.448;2022-07-23T09:17:42;100094.84;;;29.86;38.08
49567;BME280;35472;50.514;30.448;2022-07-23T09:20:15;100091.25;;;30.22;38.47
49567;BME280;35472;50.514;30.448;2022-07-23T09:22:46;100095.66;;;30.19;37.69
49567;BME280;35472;50.514;30.448;2022-07-23T09:25:17;100099.22;;;29.91;37.71
49567;BME280;35472;50.514;30.448;2022-07-23T09:28:12;100078.78;;;30.23;38.89
49567;BME280;35472;50.514;30.448;2022-07-23T09:30:41;100093.22;;;30.07;38.41
49567;BME280;35472;50.514;30.448;2022-07-23T09:33:11;100087.03;;;29.16;39.79
49567;BME280;35472;50.514;30.448;2022-07-23T09:38:14;100086.41;;;29.79;39.15
49567;BME280;35472;50.514;30.448;2022-07-23T09:40:40;100080.78;;;29.61;38.19
49567;BME280;35472;50.514;30.448;2022-07-23T09:43:05;100077.94;;;29.72;38.32
49567;BME280;35472;50.514;30.448;2022-07-23T09:45:31;100078.69;;;30.51;38.04
49567;BME280;35472;50.514;30.448;2022-07-23T09:48:15;100079.50;;;29.37;38.10
49567;BME280;35472;50.514;30.448;2022-07-23T09:50:42;100079.19;;;29.85;37.26
49567;BME280;35472;50.514;30.448;2022-07-23T09:53:08;100083.09;;;29.31;37.54
49567;BME280;35472;50.514;30.448;2022-07-23T09:55:35;100084.06;;;28.76;38.17
49567;BME280;35472;50.514;30.448;2022-07-23T09:58:05;100089.09;;;29.19;38.30
49567;BME280;35472;50.514;30.448;2022-07-23T10:00:34;100096.78;;;28.56;38.00
49567;BME280;35472;50.514;30.448;2022-07-23T10:03:01;100078.59;;;29.05;37.61
49567;BME280;35472;50.514;30.448;2022-07-23T10:05:28;100079.00;;;29.07;37.46
49567;BME280;35472;50.514;30.448;2022-07-23T10:08:13;100075.03;;;29.22;37.72
49567;BME280;35472;50.514;30.448;2022-07-23T10:10:46;100073.53;;;30.07;36.11
49567;BME280;35472;50.514;30.448;2022-07-23T10:13:40;100071.94;;;30.16;36.56
49567;BME280;35472;50.514;30.448;2022-07-23T10:16:16;100052.97;;;29.42;37.23
49567;BME280;35472;50.514;30.448;2022-07-23T10:18:41;100056.59;;;30.50;35.40
49567;BME280;35472;50.514;30.448;2022-07-23T10:21:08;100067.16;;;31.33;34.97
49567;BME280;35472;50.514;30.448;2022-07-23T10:23:41;100065.88;;;29.50;37.07
49567;BME280;35472;50.514;30.448;2022-07-23T10:26:24;100063.50;;;29.84;36.32
49567;BME280;35472;50.514;30.448;2022-07-23T10:29:10;100063.50;;;29.74;35.90
49567;BME280;35472;50.514;30.448;2022-07-23T10:31:45;100067.94;;;29.92;36.01
49567;BME280;35472;50.514;30.448;2022-07-23T10:34:29;100062.69;;;30.23;36.31
49567;BME280;35472;50.514;30.448;2022-07-23T10:39:32;100058.28;;;30.11;35.38
49567;BME280;35472;50.514;30.448;2022-07-23T10:42:17;100059.75;;;29.16;36.86
49567;BME280;35472;50.514;30.448;2022-07-23T10:44:47;100055.06;;;29.99;35.48
49567;BME280;35472;50.514;30.448;2022-07-23T10:47:25;100045.81;;;29.95;35.52
49567;BME280;35472;50.514;30.448;2022-07-23T10:50:21;100057.06;;;30.02;35.63
49567;BME280;35472;50.514;30.448;2022-07-23T10:57:56;100040.69;;;31.13;33.65
49567;BME280;35472;50.514;30.448;2022-07-23T11:00:23;100036.06;;;30.70;34.74
49567;BME280;35472;50.514;30.448;2022-07-23T11:02:54;100034.09;;;30.46;35.43
49567;BME280;35472;50.514;30.448;2022-07-23T11:05:23;100037.09;;;31.05;34.83
49567;BME280;35472;50.514;30.448;2022-07-23T11:10:50;100042.59;;;30.28;35.03
49567;BME280;35472;50.514;30.448;2022-07-23T11:13:37;100035.31;;;30.38;36.16
49567;BME280;35472;50.514;30.448;2022-07-23T11:16:14;100036.19;;;29.88;36.79
49567;BME280;35472;50.514;30.448;2022-07-23T11:24:06;100029.19;;;30.79;36.44
49567;BME280;35472;50.514;30.448;2022-07-23T11:32:00;100027.63;;;30.56;34.26
49567;BME280;35472;50.514;30.448;2022-07-23T11:37:06;100031.94;;;30.89;34.86
49567;BME280;35472;50.514;30.448;2022-07-23T11:39:32;100030.47;;;30.53;35.24
49567;BME280;35472;50.514;30.448;2022-07-23T11:41:59;100015.63;;;30.38;35.34
49567;BME280;35472;50.514;30.448;2022-07-23T11:44:29;100025.63;;;30.50;34.98
49567;BME280;35472;50.514;30.448;2022-07-23T11:47:06;100013.69;;;29.53;36.97
49567;BME280;35472;50.514;30.448;2022-07-23T11:49:32;100013.69;;;29.81;37.00
49567;BME280;35472;50.514;30.448;2022-07-23T11:54:30;100013.25;;;30.08;35.94
49567;BME280;35472;50.514;30.448;2022-07-23T11:56:57;100005.22;;;31.19;34.49
49567;BME280;35472;50.514;30.448;2022-07-23T11:59:24;100010.50;;;31.13;34.72
49567;BME280;35472;50.514;30.448;2022-07-23T12:02:04;100016.84;;;30.33;36.16
49567;BME280;35472;50.514;30.448;2022-07-23T12:04:41;100004.69;;;30.72;34.80
49567;BME280;35472;50.514;30.448;2022-07-23T12:07:36;100011.13;;;30.62;35.08
49567;BME280;35472;50.514;30.448;2022-07-23T12:10:14;100016.84;;;31.32;35.30
49567;BME280;35472;50.514;30.448;2022-07-23T12:12:45;100011.25;;;31.17;34.80
49567;BME280;35472;50.514;30.448;2022-07-23T12:15:13;100006.41;;;31.77;34.23
49567;BME280;35472;50.514;30.448;2022-07-23T12:17:41;100010.41;;;31.31;35.08
49567;BME280;35472;50.514;30.448;2022-07-23T12:20:09;100016.66;;;31.57;34.46
49567;BME280;35472;50.514;30.448;2022-07-23T12:22:39;100018.47;;;31.22;34.89
49567;BME280;35472;50.514;30.448;2022-07-23T12:25:16;100001.34;;;30.95;35.35
49567;BME280;35472;50.514;30.448;2022-07-23T12:27:43;100005.81;;;30.85;34.75
49567;BME280;35472;50.514;30.448;2022-07-23T12:30:22;99999.22;;;31.10;34.63
49567;BME280;35472;50.514;30.448;2022-07-23T12:32:50;100001.09;;;31.34;34.51
49567;BME280;35472;50.514;30.448;2022-07-23T12:35:16;99992.44;;;31.04;34.54
49567;BME280;35472;50.514;30.448;2022-07-23T12:37:43;99995.50;;;31.23;34.36
49567;BME280;35472;50.514;30.448;2022-07-23T12:40:19;99984.94;;;30.79;35.02
49567;BME280;35472;50.514;30.448;2022-07-23T12:42:47;99989.75;;;31.45;34.34
49567;BME280;35472;50.514;30.448;2022-07-23T12:45:12;99989.22;;;31.61;33.79
49567;BME280;35472;50.514;30.448;2022-07-23T12:47:58;99994.16;;;30.80;33.81
49567;BME280;35472;50.514;30.448;2022-07-23T12:50:35;99988.69;;;31.21;33.20
49567;BME280;35472;50.514;30.448;2022-07-23T12:53:07;99981.31;;;30.82;33.86
49567;BME280;35472;50.514;30.448;2022-07-23T12:55:34;99972.13;;;31.30;32.47
49567;BME280;35472;50.514;30.448;2022-07-23T12:58:26;99970.44;;;30.81;33.20
49567;BME280;35472;50.514;30.448;2022-07-23T13:05:55;99964.69;;;30.98;32.35
49567;BME280;35472;50.514;30.448;2022-07-23T13:08:21;99957.22;;;30.63;32.77
49567;BME280;35472;50.514;30.448;2022-07-23T13:10:47;99964.84;;;31.40;31.81
49567;BME280;35472;50.514;30.448;2022-07-23T13:13:15;99965.69;;;31.82;32.11
49567;BME280;35472;50.514;30.448;2022-07-23T13:15:41;99958.97;;;32.44;31.33
49567;BME280;35472;50.514;30.448;2022-07-23T13:18:06;99965.25;;;31.38;32.49
49567;BME280;35472;50.514;30.448;2022-07-23T13:20:32;99972.81;;;30.89;32.72